Time;durP1;ratioP1;P1;durP2;ratioP2;P2;SDS_P1;SDS_P2;PMS_P1;PMS_P2;Temp;Humidity;BMP_temperature;BMP_pressure;BME280_temperature;BME280_humidity;BME280_pressure;Samples;Min_cycle;Max_cycle;Signal;HPM_P1;HPM_P2
2021/06/25 00:02:08;;;;;;;;;;;17.90;99.90;;;;;;5068942;28;19985;-64
2021/06/25 00:04:33;;;;;;;;;;;17.90;99.90;;;;;;5068602;28;20050;-62
2021/06/25 00:06:59;;;;;;;;;;;17.90;99.90;;;;;;5068757;28;19982;-63
2021/06/25 00:09:24;;;;;;;;;;;17.80;99.90;;;;;;5067629;28;20008;-63
2021/06/25 00:11:50;;;;;;;;;;;17.70;99.90;;;;;;5067751;28;20012;-63
2021/06/25 00:14:20;;;;;;;;;;;17.70;99.90;;;;;;5068449;28;20007;-62
2021/06/25 00:16:47;;;;;;;;;;;17.70;99.90;;;;;;5067953;28;19985;-62
2021/06/25 00:19:12;;;;;;;;;;;17.70;99.90;;;;;;5067975;28;20035;-63
2021/06/25 00:21:38;;;;;;;;;;;17.70;99.90;;;;;;5067927;28;20359;-63
2021/06/25 00:24:03;;;;;;;;;;;17.70;99.90;;;;;;5068245;28;20035;-62
2021/06/25 00:26:29;;;;;;;;;;;17.70;99.90;;;;;;5068515;28;20401;-63
2021/06/25 00:28:54;;;;;;;;;;;17.70;99.90;;;;;;5066801;28;20554;-63
2021/06/25 00:31:20;;;;;;;;;;;17.60;99.90;;;;;;5067908;28;20008;-64
2021/06/25 00:33:45;;;;;;;;;;;17.70;99.90;;;;;;5068227;28;19985;-64
2021/06/25 00:36:12;;;;;;;;;;;17.60;99.90;;;;;;5068184;28;20079;-63
2021/06/25 00:38:37;;;;;;;;;;;17.60;99.90;;;;;;5068462;28;20003;-63
2021/06/25 00:41:03;;;;;;;;;;;17.50;99.90;;;;;;5078744;28;19993;-62
2021/06/25 00:43:29;;;;;;;;;;;17.50;99.90;;;;;;5071535;28;20045;-62
2021/06/25 00:45:54;;;;;;;;;;;17.50;99.90;;;;;;5068954;28;20079;-62
2021/06/25 00:48:20;;;;;;;;;;;17.40;99.90;;;;;;5069213;28;20105;-62
2021/06/25 00:50:45;;;;;;;;;;;17.30;99.90;;;;;;5069174;28;19985;-62
2021/06/25 00:53:12;;;;;;;;;;;17.30;99.90;;;;;;5069045;28;19981;-62
2021/06/25 00:55:43;;;;;;;;;;;17.20;99.90;;;;;;5069025;28;20513;-62
2021/06/25 00:58:11;;;;;;;;;;;17.20;99.90;;;;;;5069273;28;20068;-62
2021/06/25 01:00:36;;;;;;;;;;;17.30;99.90;;;;;;5069013;28;20009;-62
2021/06/25 01:03:02;;;;;;;;;;;17.30;99.90;;;;;;5069404;28;20096;-62
2021/06/25 01:05:27;;;;;;;;;;;17.30;99.90;;;;;;5069601;28;19985;-62
2021/06/25 01:07:53;;;;;;;;;;;17.30;99.90;;;;;;5069115;28;20092;-62
2021/06/25 01:10:19;;;;;;;;;;;17.20;99.90;;;;;;5069254;28;19982;-62
2021/06/25 01:12:45;;;;;;;;;;;17.20;99.90;;;;;;5069245;28;19985;-62
2021/06/25 01:15:13;;;;;;;;;;;17.10;99.90;;;;;;5069280;28;20034;-62
2021/06/25 01:17:40;;;;;;;;;;;17.20;99.90;;;;;;5068849;28;20238;-62
2021/06/25 01:20:08;;;;;;;;;;;17.10;99.90;;;;;;5069056;28;19987;-62
2021/06/25 01:22:38;;;;;;;;;;;17.10;99.90;;;;;;5069176;28;20020;-62
2021/06/25 01:25:07;;;;;;;;;;;17.10;99.90;;;;;;5069349;28;19991;-62
2021/06/25 01:27:33;;;;;;;;;;;17.00;99.90;;;;;;5069051;28;20084;-62
2021/06/25 01:29:59;;;;;;;;;;;17.00;99.90;;;;;;5069041;28;20683;-62
2021/06/25 01:32:25;;;;;;;;;;;16.90;99.90;;;;;;5069064;28;20119;-62
2021/06/25 01:34:52;;;;;;;;;;;16.70;99.90;;;;;;5068565;28;20523;-62
2021/06/25 01:37:19;;;;;;;;;;;16.70;99.90;;;;;;5068778;28;19985;-62
2021/06/25 01:39:48;;;;;;;;;;;16.70;99.90;;;;;;5068852;28;19985;-62
2021/06/25 01:42:13;;;;;;;;;;;16.70;99.90;;;;;;5068533;28;20539;-62
2021/06/25 01:44:40;;;;;;;;;;;16.70;99.90;;;;;;5068491;28;20075;-62
2021/06/25 01:47:06;;;;;;;;;;;16.70;99.90;;;;;;5068815;28;19977;-61
2021/06/25 01:49:32;;;;;;;;;;;16.70;99.90;;;;;;5068597;28;20000;-62
2021/06/25 01:51:57;;;;;;;;;;;16.70;99.90;;;;;;5068706;28;19989;-62
2021/06/25 01:54:23;;;;;;;;;;;16.70;99.90;;;;;;5068711;28;20027;-62
2021/06/25 01:56:49;;;;;;;;;;;16.80;99.90;;;;;;5068792;28;20061;-62
2021/06/25 01:59:15;;;;;;;;;;;16.70;99.90;;;;;;5071147;28;19996;-62
2021/06/25 02:01:41;;;;;;;;;;;16.60;99.90;;;;;;5072635;28;20080;-62
2021/06/25 02:04:07;;;;;;;;;;;16.50;99.90;;;;;;5072898;28;20067;-62
2021/06/25 02:06:33;;;;;;;;;;;16.50;99.90;;;;;;5072823;28;19977;-62
2021/06/25 02:09:00;;;;;;;;;;;16.50;99.90;;;;;;5072692;28;20008;-62
2021/06/25 02:11:26;;;;;;;;;;;16.50;99.90;;;;;;5072987;28;19984;-62
2021/06/25 02:13:52;;;;;;;;;;;16.50;99.90;;;;;;5072301;28;20012;-62
2021/06/25 02:16:17;;;;;;;;;;;16.50;99.90;;;;;;5072687;28;20022;-62
2021/06/25 02:18:43;;;;;;;;;;;16.40;99.90;;;;;;5071961;28;20447;-62
2021/06/25 02:21:10;;;;;;;;;;;16.40;99.90;;;;;;5072700;28;19982;-62
2021/06/25 02:23:36;;;;;;;;;;;16.50;99.90;;;;;;5072350;28;19983;-62
2021/06/25 02:26:02;;;;;;;;;;;16.40;99.90;;;;;;5072380;28;19981;-62
2021/06/25 02:28:28;;;;;;;;;;;16.40;99.90;;;;;;5072356;28;20058;-62
2021/06/25 02:30:57;;;;;;;;;;;16.40;99.90;;;;;;5072212;28;19981;-62
2021/06/25 02:33:23;;;;;;;;;;;16.30;99.90;;;;;;5071976;28;20446;-62
2021/06/25 02:35:48;;;;;;;;;;;16.20;99.90;;;;;;5072068;28;20063;-62
2021/06/25 02:38:14;;;;;;;;;;;16.20;99.90;;;;;;5072230;28;19981;-62
2021/06/25 02:40:40;;;;;;;;;;;16.10;99.90;;;;;;5071648;28;19981;-62
2021/06/25 02:43:05;;;;;;;;;;;16.10;99.90;;;;;;5071878;28;20111;-62
2021/06/25 02:45:31;;;;;;;;;;;16.00;99.90;;;;;;5071908;28;20347;-62
2021/06/25 02:47:57;;;;;;;;;;;16.10;99.90;;;;;;5071771;28;20084;-62
2021/06/25 02:50:22;;;;;;;;;;;16.20;99.90;;;;;;5071673;28;19981;-62
2021/06/25 02:52:48;;;;;;;;;;;16.10;99.90;;;;;;5071371;28;19984;-62
2021/06/25 02:55:14;;;;;;;;;;;16.10;99.90;;;;;;5071784;28;19981;-62
2021/06/25 02:57:40;;;;;;;;;;;16.20;99.90;;;;;;5071568;28;20016;-62
2021/06/25 03:00:07;;;;;;;;;;;16.20;99.90;;;;;;5071825;28;20076;-62
2021/06/25 03:02:34;;;;;;;;;;;16.20;99.90;;;;;;5071726;28;19989;-62
2021/06/25 03:05:00;;;;;;;;;;;16.10;99.90;;;;;;5071401;28;20068;-62
2021/06/25 03:07:25;;;;;;;;;;;16.10;99.90;;;;;;5071520;28;20081;-62
2021/06/25 03:09:51;;;;;;;;;;;16.10;99.90;;;;;;5072037;28;20092;-62
2021/06/25 03:12:16;;;;;;;;;;;16.10;99.90;;;;;;5092034;28;19977;-62
2021/06/25 03:14:42;;;;;;;;;;;16.00;99.90;;;;;;5091696;28;19985;-62
2021/06/25 03:17:09;;;;;;;;;;;15.90;99.90;;;;;;5091759;28;19988;-62
2021/06/25 03:19:35;;;;;;;;;;;15.90;99.90;;;;;;5091477;28;20031;-62
2021/06/25 03:22:01;;;;;;;;;;;15.90;99.90;;;;;;5091721;28;19985;-62
2021/06/25 03:24:26;;;;;;;;;;;15.90;99.90;;;;;;5091801;28;20003;-62
2021/06/25 03:26:52;;;;;;;;;;;15.90;99.90;;;;;;5091316;28;20075;-62
2021/06/25 03:29:17;;;;;;;;;;;15.90;99.90;;;;;;5087245;28;20004;-62
2021/06/25 03:31:43;;;;;;;;;;;15.80;99.90;;;;;;5071013;28;19988;-62
2021/06/25 03:34:08;;;;;;;;;;;15.90;99.90;;;;;;5071074;28;19984;-62
2021/06/25 03:36:34;;;;;;;;;;;15.80;99.90;;;;;;5071155;28;19981;-62
2021/06/25 03:39:00;;;;;;;;;;;15.80;99.90;;;;;;5070815;28;20064;-62
2021/06/25 03:41:25;;;;;;;;;;;15.90;99.90;;;;;;5070913;28;19988;-62
2021/06/25 03:43:51;;;;;;;;;;;15.90;99.90;;;;;;5070913;28;20009;-62
2021/06/25 03:46:17;;;;;;;;;;;16.00;99.90;;;;;;5070790;28;20447;-62
2021/06/25 03:48:43;;;;;;;;;;;16.00;99.90;;;;;;5069959;28;20009;-62
2021/06/25 03:51:10;;;;;;;;;;;16.00;99.90;;;;;;5070903;28;20138;-62
2021/06/25 03:53:35;;;;;;;;;;;16.00;99.90;;;;;;5070322;28;19988;-62
2021/06/25 03:56:13;;;;;;;;;;;15.90;99.90;;;;;;5070490;28;19985;-62
2021/06/25 03:58:40;;;;;;;;;;;15.90;99.90;;;;;;5070404;28;19977;-62
2021/06/25 04:01:05;;;;;;;;;;;15.80;99.90;;;;;;5070576;28;20004;-62
2021/06/25 04:03:31;;;;;;;;;;;15.80;99.90;;;;;;5070521;28;19981;-62
2021/06/25 04:05:57;;;;;;;;;;;15.70;99.90;;;;;;5070584;28;19977;-62
2021/06/25 04:08:25;;;;;;;;;;;15.60;99.90;;;;;;5070346;28;20001;-62
2021/06/25 04:10:51;;;;;;;;;;;15.50;99.90;;;;;;5070125;28;19981;-62
2021/06/25 04:13:17;;;;;;;;;;;15.50;99.90;;;;;;5070440;28;20005;-62
2021/06/25 04:15:42;;;;;;;;;;;15.40;99.90;;;;;;5070353;28;19991;-62
2021/06/25 04:18:08;;;;;;;;;;;15.40;99.90;;;;;;5070327;28;19977;-62
2021/06/25 04:20:33;;;;;;;;;;;15.40;99.90;;;;;;5069651;28;19981;-62
2021/06/25 04:22:59;;;;;;;;;;;15.30;99.90;;;;;;5069962;28;19985;-62
2021/06/25 04:25:25;;;;;;;;;;;15.30;99.90;;;;;;5070191;28;20450;-62
2021/06/25 04:27:50;;;;;;;;;;;15.30;99.90;;;;;;5069806;28;19981;-62
2021/06/25 04:30:16;;;;;;;;;;;15.30;99.90;;;;;;5070155;28;19977;-62
2021/06/25 04:32:42;;;;;;;;;;;15.30;99.90;;;;;;5069579;28;19981;-62
2021/06/25 04:35:08;;;;;;;;;;;15.30;99.90;;;;;;5069940;28;20046;-62
2021/06/25 04:37:34;;;;;;;;;;;15.30;99.90;;;;;;5069848;28;19989;-62
2021/06/25 04:40:00;;;;;;;;;;;15.20;99.90;;;;;;5069866;28;19981;-62
2021/06/25 04:42:26;;;;;;;;;;;15.30;99.90;;;;;;5069468;28;20008;-62
2021/06/25 04:44:51;;;;;;;;;;;15.40;99.90;;;;;;5069527;28;20474;-62
2021/06/25 04:47:17;;;;;;;;;;;15.40;99.90;;;;;;5069298;28;20028;-62
2021/06/25 04:49:43;;;;;;;;;;;15.50;99.90;;;;;;5069256;28;20486;-62
2021/06/25 04:52:09;;;;;;;;;;;15.40;99.90;;;;;;5069339;28;20126;-62
2021/06/25 04:54:35;;;;;;;;;;;15.40;99.90;;;;;;5069733;28;19988;-62
2021/06/25 04:57:01;;;;;;;;;;;15.40;99.90;;;;;;5073270;28;19989;-62
2021/06/25 04:59:27;;;;;;;;;;;15.50;99.90;;;;;;5078223;28;19986;-62
2021/06/25 05:01:53;;;;;;;;;;;15.60;99.90;;;;;;5069082;28;19981;-62
2021/06/25 05:04:19;;;;;;;;;;;15.70;99.90;;;;;;5088676;28;20033;-62
2021/06/25 05:06:46;;;;;;;;;;;15.70;99.90;;;;;;5088536;28;19985;-62
2021/06/25 05:09:12;;;;;;;;;;;15.90;99.90;;;;;;5076932;28;20135;-63
2021/06/25 05:11:37;;;;;;;;;;;16.10;99.90;;;;;;5073821;28;20079;-62
2021/06/25 05:14:03;;;;;;;;;;;16.10;99.90;;;;;;5089570;28;19991;-62
2021/06/25 05:16:29;;;;;;;;;;;16.20;99.90;;;;;;5089654;28;19985;-62
2021/06/25 05:18:54;;;;;;;;;;;16.30;99.90;;;;;;5089007;28;19992;-62
2021/06/25 05:21:20;;;;;;;;;;;16.30;99.90;;;;;;5084620;28;19981;-62
2021/06/25 05:23:46;;;;;;;;;;;16.30;99.90;;;;;;5081558;28;19981;-62
2021/06/25 05:26:11;;;;;;;;;;;16.30;99.90;;;;;;5083925;28;20027;-62
2021/06/25 05:28:37;;;;;;;;;;;16.40;99.90;;;;;;5087593;28;19997;-62
2021/06/25 05:31:03;;;;;;;;;;;16.40;99.90;;;;;;5069176;28;19985;-63
2021/06/25 05:33:28;;;;;;;;;;;16.40;99.90;;;;;;5073323;28;20489;-63
2021/06/25 05:35:54;;;;;;;;;;;16.50;99.90;;;;;;5074279;28;19994;-63
2021/06/25 05:38:20;;;;;;;;;;;16.60;99.90;;;;;;5078554;28;20403;-62
2021/06/25 05:40:45;;;;;;;;;;;16.50;99.90;;;;;;5085300;28;20072;-62
2021/06/25 05:43:11;;;;;;;;;;;16.60;99.90;;;;;;5080500;28;20079;-62
2021/06/25 05:45:38;;;;;;;;;;;16.60;99.90;;;;;;5068056;28;20005;-62
2021/06/25 05:48:04;;;;;;;;;;;16.70;99.90;;;;;;5066416;28;20004;-62
2021/06/25 05:50:30;;;;;;;;;;;16.70;99.90;;;;;;5068934;28;19994;-62
2021/06/25 05:52:56;;;;;;;;;;;16.80;99.90;;;;;;5067052;28;20031;-62
2021/06/25 05:55:22;;;;;;;;;;;16.80;99.90;;;;;;5067647;28;20083;-62
2021/06/25 05:57:48;;;;;;;;;;;16.80;99.90;;;;;;5069474;28;20034;-62
2021/06/25 06:00:14;;;;;;;;;;;16.80;99.90;;;;;;5076757;28;19985;-62
2021/06/25 06:02:40;;;;;;;;;;;16.80;99.90;;;;;;5068066;28;19994;-62
2021/06/25 06:05:06;;;;;;;;;;;16.80;99.90;;;;;;5079216;28;19988;-62
2021/06/25 06:07:31;;;;;;;;;;;16.90;99.90;;;;;;5080962;28;19985;-63
2021/06/25 06:09:57;;;;;;;;;;;16.90;99.90;;;;;;5077417;28;20031;-62
2021/06/25 06:12:23;;;;;;;;;;;16.90;99.90;;;;;;5087406;28;20034;-62
2021/06/25 06:14:49;;;;;;;;;;;16.90;99.90;;;;;;5074302;28;20043;-62
2021/06/25 06:17:18;;;;;;;;;;;17.00;99.90;;;;;;5079153;28;20060;-62
2021/06/25 06:19:47;;;;;;;;;;;17.10;99.90;;;;;;5087231;28;19989;-62
2021/06/25 06:33:14;;;;;;;;;;;17.20;99.90;;;;;;5068148;28;20119;-63
2021/06/25 06:35:40;;;;;;;;;;;17.20;99.90;;;;;;5081848;28;19984;-63
2021/06/25 06:38:06;;;;;;;;;;;17.30;99.90;;;;;;5077687;28;20008;-62
2021/06/25 06:40:32;;;;;;;;;;;17.30;99.90;;;;;;5066577;28;20455;-63
2021/06/25 06:42:58;;;;;;;;;;;17.40;99.90;;;;;;5066995;28;19981;-62
2021/06/25 06:45:23;;;;;;;;;;;17.30;99.90;;;;;;5067540;28;19989;-62
2021/06/25 06:47:49;;;;;;;;;;;17.40;99.90;;;;;;5074236;28;19993;-63
2021/06/25 06:50:15;;;;;;;;;;;17.40;99.90;;;;;;5081415;28;19988;-62
2021/06/25 06:52:43;;;;;;;;;;;17.40;99.90;;;;;;5069093;28;19997;-62
2021/06/25 06:55:09;;;;;;;;;;;17.40;99.90;;;;;;5076684;28;19984;-66
2021/06/25 06:57:35;;;;;;;;;;;17.50;99.90;;;;;;5073445;28;19985;-65
2021/06/25 07:00:01;;;;;;;;;;;17.60;99.90;;;;;;5080896;28;20038;-65
2021/06/25 07:02:26;;;;;;;;;;;17.60;99.90;;;;;;5081532;28;19985;-65
2021/06/25 07:04:52;;;;;;;;;;;17.60;99.90;;;;;;5069370;28;20044;-65
2021/06/25 07:07:17;;;;;;;;;;;17.50;99.90;;;;;;5072868;28;20115;-65
2021/06/25 07:09:43;;;;;;;;;;;17.60;99.90;;;;;;5082069;28;20157;-65
2021/06/25 07:12:09;;;;;;;;;;;17.70;99.90;;;;;;5073291;28;19989;-65
2021/06/25 07:14:34;;;;;;;;;;;17.80;99.90;;;;;;5085846;28;20031;-65
2021/06/25 07:17:01;;;;;;;;;;;17.80;99.90;;;;;;5089782;28;19992;-65
2021/06/25 07:19:26;;;;;;;;;;;17.50;99.90;;;;;;5070346;28;19986;-66
2021/06/25 07:21:52;;;;;;;;;;;17.40;99.90;;;;;;5072026;28;20019;-66
2021/06/25 07:24:18;;;;;;;;;;;17.40;99.90;;;;;;5078197;28;19996;-66
2021/06/25 07:26:43;;;;;;;;;;;17.80;99.90;;;;;;5072663;28;19989;-66
2021/06/25 07:29:09;;;;;;;;;;;17.80;99.90;;;;;;5069044;28;20008;-62
2021/06/25 07:31:35;;;;;;;;;;;17.90;99.90;;;;;;5072248;28;19989;-62
2021/06/25 07:34:01;;;;;;;;;;;17.90;99.90;;;;;;5077764;28;20050;-62
2021/06/25 07:36:26;;;;;;;;;;;18.00;99.90;;;;;;5070624;28;19985;-62
2021/06/25 07:38:52;;;;;;;;;;;18.10;99.90;;;;;;5068716;28;19981;-62
2021/06/25 07:41:18;;;;;;;;;;;18.10;99.90;;;;;;5083515;28;19985;-61
2021/06/25 07:43:44;;;;;;;;;;;18.20;99.90;;;;;;5088199;28;19988;-61
2021/06/25 07:46:09;;;;;;;;;;;18.20;99.90;;;;;;5087271;28;20370;-62
2021/06/25 07:48:36;;;;;;;;;;;18.30;99.90;;;;;;5087311;28;20027;-61
2021/06/25 07:51:03;;;;;;;;;;;18.30;99.90;;;;;;5086676;28;20047;-62
2021/06/25 07:53:28;;;;;;;;;;;18.40;99.90;;;;;;5087137;28;20030;-62
2021/06/25 07:55:54;;;;;;;;;;;18.50;99.90;;;;;;5086314;28;20071;-62
2021/06/25 07:58:20;;;;;;;;;;;18.50;99.90;;;;;;5087411;28;19988;-61
2021/06/25 08:00:45;;;;;;;;;;;18.40;99.90;;;;;;5087395;28;19992;-62
2021/06/25 08:03:11;;;;;;;;;;;18.40;99.90;;;;;;5087977;28;19985;-62
2021/06/25 08:05:36;;;;;;;;;;;18.30;99.90;;;;;;5087147;28;20660;-62
2021/06/25 08:08:02;;;;;;;;;;;18.40;99.90;;;;;;5087072;28;20465;-62
2021/06/25 08:10:28;;;;;;;;;;;18.40;99.90;;;;;;5086919;28;20461;-62
2021/06/25 08:12:53;;;;;;;;;;;18.60;99.90;;;;;;5086080;28;19989;-62
2021/06/25 08:15:19;;;;;;;;;;;18.70;99.90;;;;;;5087260;28;20512;-62
2021/06/25 08:17:44;;;;;;;;;;;18.80;99.90;;;;;;5087372;28;20024;-61
2021/06/25 08:20:10;;;;;;;;;;;18.90;99.90;;;;;;5087007;28;19984;-62
2021/06/25 08:22:37;;;;;;;;;;;18.80;99.90;;;;;;5086703;28;20028;-62
2021/06/25 08:25:03;;;;;;;;;;;18.90;99.90;;;;;;5086875;28;20370;-62
2021/06/25 08:27:28;;;;;;;;;;;18.90;99.90;;;;;;5087118;28;19988;-62
2021/06/25 08:29:55;;;;;;;;;;;19.00;99.90;;;;;;5086217;28;20005;-62
2021/06/25 08:32:23;;;;;;;;;;;19.00;99.90;;;;;;5087002;28;19989;-62
2021/06/25 08:34:49;;;;;;;;;;;18.80;99.90;;;;;;5086303;28;20047;-62
2021/06/25 08:37:14;;;;;;;;;;;18.80;99.90;;;;;;5087483;28;20453;-62
2021/06/25 08:39:40;;;;;;;;;;;18.90;99.90;;;;;;5086449;28;19996;-61
2021/06/25 08:42:06;;;;;;;;;;;19.00;99.90;;;;;;5086650;28;20420;-61
2021/06/25 08:44:37;;;;;;;;;;;19.10;99.90;;;;;;5086377;28;19980;-61
2021/06/25 08:47:03;;;;;;;;;;;19.10;99.90;;;;;;5086727;28;20038;-61
2021/06/25 08:49:29;;;;;;;;;;;19.00;99.90;;;;;;5086579;28;20004;-62
2021/06/25 08:51:55;;;;;;;;;;;18.70;99.90;;;;;;5084478;28;20096;-62
2021/06/25 08:54:22;;;;;;;;;;;18.70;99.90;;;;;;5086396;28;19985;-62
2021/06/25 08:56:49;;;;;;;;;;;19.00;99.90;;;;;;5085196;28;19985;-62
2021/06/25 08:59:19;;;;;;;;;;;19.30;99.90;;;;;;5086310;28;20499;-61
2021/06/25 09:01:49;;;;;;;;;;;19.30;99.90;;;;;;5086512;28;19992;-61
2021/06/25 09:04:29;;;;;;;;;;;19.10;99.90;;;;;;5087017;28;20454;-61
2021/06/25 09:06:55;;;;;;;;;;;18.80;99.90;;;;;;5085527;28;20356;-62
2021/06/25 09:09:21;;;;;;;;;;;19.00;99.90;;;;;;5086128;28;20013;-62
2021/06/25 09:12:05;;;;;;;;;;;19.20;99.90;;;;;;5085684;28;20041;-62
2021/06/25 09:14:51;;;;;;;;;;;19.30;99.90;;;;;;5085934;28;20073;-61
2021/06/25 09:17:16;;;;;;;;;;;19.30;99.90;;;;;;5086012;28;19985;-62
2021/06/25 09:19:42;;;;;;;;;;;19.20;99.90;;;;;;5086376;28;19980;-62
2021/06/25 09:22:07;;;;;;;;;;;19.20;99.90;;;;;;5086185;28;20475;-62
2021/06/25 09:24:33;;;;;;;;;;;19.40;99.90;;;;;;5085872;28;20374;-62
2021/06/25 09:27:07;;;;;;;;;;;19.40;99.90;;;;;;5085716;28;19981;-62
2021/06/25 09:29:34;;;;;;;;;;;19.50;99.90;;;;;;5084158;28;20421;-62
2021/06/25 09:32:04;;;;;;;;;;;19.50;99.90;;;;;;5083592;28;20394;-62
2021/06/25 09:34:35;;;;;;;;;;;19.70;99.90;;;;;;5066694;28;19982;-61
2021/06/25 09:37:03;;;;;;;;;;;19.70;99.90;;;;;;5066263;28;20078;-62
2021/06/25 09:39:28;;;;;;;;;;;19.70;99.90;;;;;;5086393;28;20473;-62
2021/06/25 09:41:55;;;;;;;;;;;19.80;99.90;;;;;;5085405;28;19989;-61
2021/06/25 09:44:21;;;;;;;;;;;19.90;99.90;;;;;;5085483;28;19995;-61
2021/06/25 09:46:53;;;;;;;;;;;19.80;99.90;;;;;;5085628;28;19981;-61
2021/06/25 09:49:29;;;;;;;;;;;19.70;99.90;;;;;;5084088;28;20015;-62
2021/06/25 09:52:02;;;;;;;;;;;19.70;99.90;;;;;;5084807;28;20495;-62
2021/06/25 09:54:28;;;;;;;;;;;19.90;99.90;;;;;;5086313;28;19985;-62
2021/06/25 09:57:09;;;;;;;;;;;20.10;99.90;;;;;;5085199;28;19993;-62
2021/06/25 09:59:53;;;;;;;;;;;20.10;99.90;;;;;;5081811;28;19992;-62
2021/06/25 10:02:20;;;;;;;;;;;20.10;99.90;;;;;;5075722;28;19985;-62
2021/06/25 10:04:47;;;;;;;;;;;20.20;99.90;;;;;;5072717;28;20014;-62
2021/06/25 10:07:15;;;;;;;;;;;20.40;99.90;;;;;;5075911;28;19996;-62
2021/06/25 10:09:42;;;;;;;;;;;20.40;99.90;;;;;;5073054;28;20531;-62
2021/06/25 10:12:11;;;;;;;;;;;20.50;99.90;;;;;;5085527;28;19980;-62
2021/06/25 10:14:37;;;;;;;;;;;20.40;99.90;;;;;;5068736;28;20013;-62
2021/06/25 10:17:05;;;;;;;;;;;20.30;99.90;;;;;;5072172;28;19996;-62
2021/06/25 10:19:37;;;;;;;;;;;20.50;99.90;;;;;;5074514;28;20068;-62
2021/06/25 10:22:04;;;;;;;;;;;20.60;99.90;;;;;;5070464;28;20047;-62
2021/06/25 10:24:31;;;;;;;;;;;20.60;99.90;;;;;;5090046;28;20126;-62
2021/06/25 10:26:57;;;;;;;;;;;20.50;99.90;;;;;;5091023;28;20453;-62
2021/06/25 10:29:24;;;;;;;;;;;20.90;99.90;;;;;;5080825;28;20525;-62
2021/06/25 10:31:50;;;;;;;;;;;21.20;99.90;;;;;;5070283;28;20949;-62
2021/06/25 10:34:15;;;;;;;;;;;21.00;99.90;;;;;;5070463;28;19988;-62
2021/06/25 10:36:42;;;;;;;;;;;20.80;99.90;;;;;;5070284;28;19992;-62
2021/06/25 10:39:09;;;;;;;;;;;20.60;99.90;;;;;;5073587;28;19989;-62
2021/06/25 10:41:46;;;;;;;;;;;20.60;99.90;;;;;;5079601;28;19992;-59
2021/06/25 10:44:32;;;;;;;;;;;20.90;99.90;;;;;;5069468;28;20038;-59
2021/06/25 10:47:36;;;;;;;;;;;20.80;99.90;;;;;;5081742;28;20294;-59
2021/06/25 10:50:02;;;;;;;;;;;21.20;99.90;;;;;;5060267;28;20127;-59
2021/06/25 10:52:31;;;;;;;;;;;21.00;99.90;;;;;;5067552;28;20020;-60
2021/06/25 10:55:03;;;;;;;;;;;21.40;99.90;;;;;;5071136;28;20024;-60
2021/06/25 10:57:31;;;;;;;;;;;21.60;99.90;;;;;;5076568;28;20080;-62
2021/06/25 10:59:56;;;;;;;;;;;21.50;99.90;;;;;;5071711;28;19993;-62
2021/06/25 11:02:41;;;;;;;;;;;21.30;99.90;;;;;;5078372;28;19989;-62
2021/06/25 11:05:21;;;;;;;;;;;21.20;99.90;;;;;;5079411;28;20355;-62
2021/06/25 11:07:48;;;;;;;;;;;21.40;99.90;;;;;;5075541;28;19989;-62
2021/06/25 11:10:20;;;;;;;;;;;21.60;99.90;;;;;;5076329;28;20034;-62
2021/06/25 11:12:46;;;;;;;;;;;21.90;99.90;;;;;;5086545;28;20405;-62
2021/06/25 11:15:11;;;;;;;;;;;21.70;99.90;;;;;;5074139;28;19997;-63
2021/06/25 11:17:52;;;;;;;;;;;21.70;99.90;;;;;;5071878;28;20363;-63
2021/06/25 11:20:17;;;;;;;;;;;21.90;99.90;;;;;;5070116;28;20532;-64
2021/06/25 11:22:49;;;;;;;;;;;22.20;99.90;;;;;;5081173;28;20119;-64
2021/06/25 11:25:31;;;;;;;;;;;22.40;99.90;;;;;;5089304;28;20069;-63
2021/06/25 11:28:22;;;;;;;;;;;22.80;99.90;;;;;;5087831;28;19996;-63
2021/06/25 11:30:51;;;;;;;;;;;22.70;99.90;;;;;;5074658;28;19993;-63
2021/06/25 11:33:23;;;;;;;;;;;22.10;99.90;;;;;;5069258;28;19989;-63
2021/06/25 11:35:49;;;;;;;;;;;22.30;99.90;;;;;;5071330;28;19989;-64
2021/06/25 11:38:15;;;;;;;;;;;22.40;99.90;;;;;;5084602;28;19992;-63
2021/06/25 11:40:47;;;;;;;;;;;22.50;99.90;;;;;;5076412;28;19994;-63
2021/06/25 11:43:14;;;;;;;;;;;22.60;99.90;;;;;;5079242;28;20485;-63
2021/06/25 11:45:39;;;;;;;;;;;22.80;99.90;;;;;;5082895;28;19996;-63
2021/06/25 11:48:05;;;;;;;;;;;23.00;99.90;;;;;;5087253;28;19996;-63
2021/06/25 11:50:37;;;;;;;;;;;23.00;99.90;;;;;;5084197;28;20450;-63
2021/06/25 11:53:04;;;;;;;;;;;22.70;99.90;;;;;;5072221;28;19996;-62
2021/06/25 11:55:29;;;;;;;;;;;22.30;99.90;;;;;;5069132;28;19989;-60
2021/06/25 11:57:56;;;;;;;;;;;22.20;99.90;;;;;;5067584;28;20434;-60
2021/06/25 12:00:22;;;;;;;;;;;22.20;99.90;;;;;;5067488;28;20031;-61
2021/06/25 12:02:55;;;;;;;;;;;22.40;99.90;;;;;;5067375;28;19985;-60
2021/06/25 12:05:24;;;;;;;;;;;22.70;99.90;;;;;;5086528;28;20405;-60
2021/06/25 12:08:01;;;;;;;;;;;23.00;99.90;;;;;;5086724;28;19981;-60
2021/06/25 12:10:27;;;;;;;;;;;23.10;99.90;;;;;;5087837;28;19996;-60
2021/06/25 12:12:57;;;;;;;;;;;23.20;99.90;;;;;;5087155;28;19984;-60
2021/06/25 12:15:24;;;;;;;;;;;23.00;99.90;;;;;;5086012;28;20498;-60
2021/06/25 12:17:50;;;;;;;;;;;22.80;99.90;;;;;;5087011;28;20423;-60
2021/06/25 12:20:20;;;;;;;;;;;22.80;99.90;;;;;;5076933;28;20000;-60
2021/06/25 12:22:47;;;;;;;;;;;22.90;99.90;;;;;;5066757;28;19985;-60
2021/06/25 12:25:13;;;;;;;;;;;23.10;99.90;;;;;;5066258;28;19989;-60
2021/06/25 12:27:40;;;;;;;;;;;23.20;99.90;;;;;;5076266;28;19992;-60
2021/06/25 12:30:07;;;;;;;;;;;23.60;99.90;;;;;;5070930;28;20103;-60
2021/06/25 12:32:33;;;;;;;;;;;23.70;99.90;;;;;;5086965;28;19984;-60
2021/06/25 12:34:58;;;;;;;;;;;24.10;99.90;;;;;;5078736;28;20069;-60
2021/06/25 12:37:24;;;;;;;;;;;24.00;99.90;;;;;;5065894;28;20253;-60
2021/06/25 12:39:49;;;;;;;;;;;23.80;99.90;;;;;;5066108;28;19988;-60
2021/06/25 12:42:21;;;;;;;;;;;24.00;99.90;;;;;;5064986;28;20443;-60
2021/06/25 12:44:48;;;;;;;;;;;24.30;99.90;;;;;;5066233;28;20445;-60
2021/06/25 12:47:13;;;;;;;;;;;24.00;99.90;;;;;;5066417;28;20410;-60
2021/06/25 12:49:40;;;;;;;;;;;23.40;99.90;;;;;;5065894;28;20009;-60
2021/06/25 12:52:33;;;;;;;;;;;23.30;99.90;;;;;;5065138;28;19993;-60
2021/06/25 12:54:59;;;;;;;;;;;23.00;99.90;;;;;;5065797;28;20028;-60
2021/06/25 12:57:24;;;;;;;;;;;23.10;99.90;;;;;;5065414;28;20024;-60
2021/06/25 12:59:53;;;;;;;;;;;23.30;99.90;;;;;;5083252;28;20046;-60
2021/06/25 13:02:19;;;;;;;;;;;23.30;99.90;;;;;;5086325;28;19985;-60
2021/06/25 13:04:45;;;;;;;;;;;23.30;99.90;;;;;;5081563;28;20478;-60
2021/06/25 13:07:19;;;;;;;;;;;23.50;99.90;;;;;;5086086;28;20475;-60
2021/06/25 13:09:44;;;;;;;;;;;23.70;99.90;;;;;;5085889;28;20094;-60
2021/06/25 13:12:12;;;;;;;;;;;24.10;99.90;;;;;;5085113;28;20095;-60
2021/06/25 13:14:39;;;;;;;;;;;24.30;99.90;;;;;;5076363;28;19989;-60
2021/06/25 13:17:05;;;;;;;;;;;24.30;99.90;;;;;;5065591;28;19985;-60
2021/06/25 13:19:46;;;;;;;;;;;24.30;99.90;;;;;;5065465;28;20760;-60
2021/06/25 13:22:30;;;;;;;;;;;24.30;99.90;;;;;;5065633;28;19985;-60
2021/06/25 13:25:15;;;;;;;;;;;23.80;99.90;;;;;;5065151;28;20526;-59
2021/06/25 13:27:41;;;;;;;;;;;23.50;99.90;;;;;;5065009;28;19985;-61
2021/06/25 13:30:14;;;;;;;;;;;22.80;99.90;;;;;;5065651;28;20111;-60
2021/06/25 13:32:48;;;;;;;;;;;22.70;99.90;;;;;;5064136;28;19985;-61
2021/06/25 13:35:14;;;;;;;;;;;22.60;99.90;;;;;;5081357;28;19993;-60
2021/06/25 13:37:39;;;;;;;;;;;22.70;99.90;;;;;;5085325;28;19988;-60
2021/06/25 13:40:06;;;;;;;;;;;22.90;99.90;;;;;;5085538;28;19988;-60
2021/06/25 13:42:31;;;;;;;;;;;22.80;99.90;;;;;;5085361;28;20042;-60
2021/06/25 13:45:15;;;;;;;;;;;22.80;99.90;;;;;;5084724;28;19993;-60
2021/06/25 13:47:42;;;;;;;;;;;22.20;99.90;;;;;;5069476;28;20429;-60
2021/06/25 13:50:08;;;;;;;;;;;22.20;99.90;;;;;;5064978;28;20044;-61
2021/06/25 13:52:33;;;;;;;;;;;22.30;99.90;;;;;;5064779;28;20078;-62
2021/06/25 13:55:17;;;;;;;;;;;22.50;99.90;;;;;;5069579;28;20431;-62
2021/06/25 13:58:05;;;;;;;;;;;22.70;99.90;;;;;;5068573;28;20000;-62
2021/06/25 14:00:43;;;;;;;;;;;22.60;99.90;;;;;;5073053;28;19992;-62
2021/06/25 14:03:22;;;;;;;;;;;22.80;99.90;;;;;;5088992;28;19988;-62
2021/06/25 14:06:01;;;;;;;;;;;22.60;99.90;;;;;;5083378;28;20101;-62
2021/06/25 14:08:56;;;;;;;;;;;22.50;99.90;;;;;;5073611;28;20044;-62
2021/06/25 14:11:23;;;;;;;;;;;22.30;99.90;;;;;;5064795;28;19993;-61
2021/06/25 14:13:53;;;;;;;;;;;22.20;99.90;;;;;;5068381;28;20062;-61
2021/06/25 14:16:23;;;;;;;;;;;22.40;99.90;;;;;;5068904;28;20417;-61
2021/06/25 14:18:50;;;;;;;;;;;22.40;99.90;;;;;;5067984;28;20036;-61
2021/06/25 14:21:17;;;;;;;;;;;22.50;99.90;;;;;;5073887;28;19993;-61
2021/06/25 14:23:42;;;;;;;;;;;23.30;99.90;;;;;;5087809;28;20394;-61
2021/06/25 14:26:08;;;;;;;;;;;23.80;99.90;;;;;;5068747;28;19984;-62
2021/06/25 14:28:33;;;;;;;;;;;23.50;99.90;;;;;;5068507;28;20661;-62
2021/06/25 14:30:59;;;;;;;;;;;23.10;99.90;;;;;;5068558;28;19989;-61